createdAt,value
2019-04-19T00:00:49.861Z,101861.36
2019-04-19T00:03:20.338Z,101865.23
2019-04-19T00:05:50.934Z,101860.92
2019-04-19T00:08:34.933Z,101857.05
2019-04-19T00:10:55.519Z,101860.48
2019-04-19T00:13:19.955Z,101861.77
2019-04-19T00:15:49.667Z,101860.89
2019-04-19T00:18:20.064Z,101857.86
2019-04-19T00:21:06.930Z,101860.86
2019-04-19T00:23:27.852Z,101871.56
2019-04-19T00:25:49.502Z,101863.80
2019-04-19T00:28:22.528Z,101860.77
2019-04-19T00:30:58.102Z,101859.89
2019-04-19T00:33:28.520Z,101864.61
2019-04-19T00:35:49.517Z,101858.56
2019-04-19T00:38:36.053Z,101862.41
2019-04-19T00:41:17.855Z,101866.28
2019-04-19T00:43:50.641Z,101869.69
2019-04-19T00:46:31.390Z,101866.64
2019-04-19T00:48:55.103Z,101860.61
2019-04-19T00:51:22.312Z,101864.43
2019-04-19T00:53:55.804Z,101861.85
2019-04-19T00:56:17.921Z,101861.75
2019-04-19T00:58:50.271Z,101862.12
2019-04-19T01:01:21.128Z,101858.13
2019-04-19T01:03:48.708Z,101859.73
2019-04-19T01:06:18.591Z,101863.52
2019-04-19T01:08:54.294Z,101858.27
2019-04-19T01:11:28.609Z,101863.75
2019-04-19T01:14:01.154Z,101866.63
2019-04-19T01:16:28.923Z,101869.20
2019-04-19T01:18:55.214Z,101866.20
2019-04-19T01:21:17.379Z,101868.58
2019-04-19T01:23:50.805Z,101872.02
2019-04-19T01:26:17.071Z,101871.63
2019-04-19T01:28:55.431Z,101873.27
2019-04-19T01:31:21.268Z,101884.20
2019-04-19T01:33:47.910Z,101879.48
2019-04-19T01:36:18.959Z,101882.55
2019-04-19T01:38:53.448Z,101882.36
2019-04-19T01:41:33.639Z,101883.77
2019-04-19T01:44:10.557Z,101876.88
2019-04-19T01:46:43.738Z,101880.33
2019-04-19T01:49:12.898Z,101876.48
2019-04-19T01:51:51.763Z,101883.36
2019-04-19T01:54:33.303Z,101880.80
2019-04-19T01:56:54.872Z,101883.36
2019-04-19T01:59:20.199Z,101883.25
2019-04-19T02:01:52.766Z,101881.80
2019-04-19T02:04:24.771Z,101881.45
2019-04-19T02:06:51.191Z,101888.88
2019-04-19T02:09:31.596Z,101892.73
2019-04-19T02:12:03.645Z,101893.52
2019-04-19T02:14:34.147Z,101890.69
2019-04-19T02:16:59.611Z,101894.23
2019-04-19T02:19:26.489Z,101891.80
2019-04-19T02:21:55.220Z,101892.75
2019-04-19T02:24:33.071Z,101894.25
2019-04-19T02:27:02.056Z,101890.53
2019-04-19T02:29:28.483Z,101895.52
2019-04-19T02:32:17.541Z,101899.33
2019-04-19T02:37:31.698Z,101902.87
2019-04-19T02:45:00.757Z,101904.02
2019-04-19T02:47:30.387Z,101909.19
2019-04-19T02:52:27.418Z,101907.73
2019-04-19T02:55:05.349Z,101909.05
2019-04-19T03:00:12.961Z,101909.86
2019-04-19T03:05:13.127Z,101910.38
2019-04-19T03:07:19.665Z,101912.92
2019-04-19T03:09:49.898Z,101911.48
2019-04-19T03:12:36.753Z,101913.94
2019-04-19T03:15:02.104Z,101914.69
2019-04-19T03:17:51.866Z,101909.94
2019-04-19T03:20:08.534Z,101917.13
2019-04-19T03:22:38.273Z,101921.83
2019-04-19T03:25:08.198Z,101923.02
2019-04-19T03:27:27.615Z,101922.18
2019-04-19T03:29:59.751Z,101924.69
2019-04-19T03:35:03.650Z,101931.72
2019-04-19T03:37:38.330Z,101930.80
2019-04-19T03:40:21.713Z,101935.61
2019-04-19T03:42:58.529Z,101935.78
2019-04-19T03:45:28.836Z,101934.88
2019-04-19T03:48:07.710Z,101937.20
2019-04-19T03:50:32.398Z,101942.51
2019-04-19T03:53:00.811Z,101936.47
2019-04-19T03:55:28.732Z,101938.19
2019-04-19T03:57:52.373Z,101941.94
2019-04-19T04:00:15.270Z,101947.91
2019-04-19T04:02:46.745Z,101945.20
2019-04-19T04:05:17.442Z,101951.23
2019-04-19T04:07:55.306Z,101946.83
2019-04-19T04:10:24.937Z,101949.42
2019-04-19T04:13:02.441Z,101954.48
2019-04-19T04:15:45.493Z,101957.88
2019-04-19T04:17:58.604Z,101953.58
2019-04-19T04:20:28.401Z,101964.21
2019-04-19T04:23:03.598Z,101960.41
2019-04-19T04:25:32.801Z,101964.06
2019-04-19T04:28:07.116Z,101960.55
2019-04-19T04:30:34.545Z,101960.14
2019-04-19T04:33:07.386Z,101965.43
2019-04-19T04:35:45.900Z,101961.88
2019-04-19T04:38:06.507Z,101976.21
2019-04-19T04:40:29.577Z,101977.89
2019-04-19T04:43:08.683Z,101980.84
2019-04-19T04:46:03.389Z,101976.00
2019-04-19T04:48:29.037Z,101982.37
2019-04-19T04:51:00.517Z,101984.84
2019-04-19T04:53:15.124Z,101986.50
2019-04-19T04:55:54.890Z,101985.59
2019-04-19T04:58:23.164Z,101983.20
2019-04-19T05:00:55.068Z,101986.37
2019-04-19T05:03:35.530Z,101992.53
2019-04-19T05:06:07.825Z,101997.00
2019-04-19T05:08:36.231Z,101996.88
2019-04-19T05:11:09.545Z,102002.33
2019-04-19T05:13:32.792Z,101999.77
2019-04-19T05:16:06.757Z,102002.78
2019-04-19T05:18:34.916Z,102003.27
2019-04-19T05:21:06.535Z,102011.28
2019-04-19T05:23:33.775Z,102007.83
2019-04-19T05:26:12.000Z,102015.89
2019-04-19T05:28:37.419Z,102019.99
2019-04-19T05:30:55.758Z,102020.19
2019-04-19T05:33:27.739Z,102027.80
2019-04-19T05:36:08.567Z,102026.97
2019-04-19T05:38:42.280Z,102026.19
2019-04-19T05:41:07.030Z,102029.29
2019-04-19T05:44:34.247Z,102026.19
2019-04-19T05:46:39.940Z,102032.11
2019-04-19T05:48:50.786Z,102034.59
2019-04-19T05:51:41.408Z,102035.58
2019-04-19T05:53:49.457Z,102032.14
2019-04-19T05:56:14.049Z,102036.41
2019-04-19T05:58:55.858Z,102032.64
2019-04-19T06:01:31.690Z,102037.11
2019-04-19T06:03:57.702Z,102038.47
2019-04-19T06:06:39.790Z,102034.63
2019-04-19T06:08:44.482Z,101901.45
2019-04-19T06:11:15.288Z,102042.17
2019-04-19T06:13:51.935Z,102033.47
2019-04-19T06:16:30.831Z,102035.42
2019-04-19T06:18:57.164Z,102035.66
2019-04-19T06:21:32.752Z,102038.97
2019-04-19T06:24:05.778Z,102037.45
2019-04-19T06:29:27.600Z,101871.64
2019-04-19T06:31:39.659Z,102035.69
2019-04-19T06:34:09.144Z,102037.60
2019-04-19T06:36:17.917Z,101635.84
2019-04-19T06:38:48.607Z,102043.13
2019-04-19T06:41:21.730Z,102044.09
2019-04-19T06:44:00.317Z,102048.88
2019-04-19T06:46:31.847Z,102049.92
2019-04-19T06:48:55.238Z,102051.34
2019-04-19T06:51:29.351Z,102048.91
2019-04-19T06:53:53.944Z,102052.09
2019-04-19T06:56:25.649Z,102053.59
2019-04-19T06:59:00.906Z,102052.89
2019-04-19T07:01:31.389Z,102051.22
2019-04-19T07:03:49.502Z,102050.48
2019-04-19T07:06:33.581Z,102050.25
2019-04-19T07:09:12.341Z,102043.52
2019-04-19T07:11:45.035Z,102043.16
2019-04-19T07:13:58.463Z,102050.10
2019-04-19T07:16:39.622Z,102047.14
2019-04-19T07:19:09.961Z,102049.73
2019-04-19T07:21:38.409Z,102045.52
2019-04-19T07:24:18.370Z,102044.73
2019-04-19T07:26:44.964Z,102045.75
2019-04-19T07:28:51.682Z,102044.55
2019-04-19T07:31:21.613Z,102045.70
2019-04-19T07:34:06.587Z,102053.14
2019-04-19T07:36:41.862Z,102051.52
2019-04-19T07:39:09.267Z,102053.81
2019-04-19T07:41:42.595Z,102047.41
2019-04-19T07:44:13.563Z,102053.87
2019-04-19T07:46:52.928Z,102059.88
2019-04-19T07:49:02.026Z,102063.27
2019-04-19T07:51:35.946Z,102056.89
2019-04-19T07:54:12.691Z,102056.15
2019-04-19T07:56:48.511Z,102060.94
2019-04-19T07:59:35.868Z,102060.74
2019-04-19T08:02:09.157Z,102060.03
2019-04-19T08:04:48.723Z,102063.17
2019-04-19T08:12:12.778Z,102066.02
2019-04-19T08:29:25.326Z,102071.61
2019-04-19T08:31:44.369Z,102073.02
2019-04-19T08:34:16.944Z,102065.94
2019-04-19T08:36:51.177Z,102069.25
2019-04-19T08:39:32.490Z,102063.89
2019-04-19T08:42:07.077Z,102063.91
2019-04-19T08:44:29.219Z,102066.15
2019-04-19T08:47:02.127Z,102061.45
2019-04-19T08:49:44.838Z,102063.81
2019-04-19T08:52:24.859Z,102066.08
2019-04-19T08:55:11.274Z,102064.30
2019-04-19T08:57:22.681Z,102065.73
2019-04-19T09:00:12.229Z,102057.44
2019-04-19T09:02:34.465Z,102052.10
2019-04-19T09:05:09.083Z,102052.16
2019-04-19T09:07:47.270Z,102058.98
2019-04-19T09:10:24.497Z,102054.72
2019-04-19T09:12:38.449Z,102054.30
2019-04-19T09:15:07.057Z,102049.66
2019-04-19T09:17:59.345Z,102047.94
2019-04-19T09:20:25.086Z,102051.06
2019-04-19T09:22:38.718Z,102052.80
2019-04-19T09:25:03.253Z,102045.02
2019-04-19T09:27:41.998Z,102043.75
2019-04-19T09:30:13.707Z,102041.66
2019-04-19T09:32:28.683Z,102045.53
2019-04-19T09:35:01.506Z,102036.91
2019-04-19T09:37:40.409Z,102032.62
2019-04-19T09:40:02.804Z,102021.08
2019-04-19T09:42:36.713Z,102025.83
2019-04-19T09:44:57.315Z,102022.80
2019-04-19T09:47:24.959Z,102029.72
2019-04-19T09:50:06.687Z,102022.84
2019-04-19T09:52:47.017Z,102029.77
2019-04-19T09:55:15.972Z,102021.13
2019-04-19T09:57:46.300Z,102028.94
2019-04-19T10:00:02.109Z,102028.53
2019-04-19T10:02:32.993Z,102029.80
2019-04-19T10:04:54.872Z,102022.89
2019-04-19T10:07:23.488Z,102027.17
2019-04-19T10:09:56.619Z,102025.44
2019-04-19T10:12:22.126Z,102022.03
2019-04-19T10:14:51.464Z,102023.31
2019-04-19T10:17:26.815Z,102017.78
2019-04-19T10:19:55.286Z,102022.08
2019-04-19T10:22:25.096Z,102016.91
2019-04-19T10:24:54.418Z,102015.63
2019-04-19T10:27:27.275Z,102009.98
2019-04-19T10:29:55.905Z,102017.34
2019-04-19T10:32:30.629Z,102015.59
2019-04-19T10:35:00.698Z,102013.02
2019-04-19T10:37:29.410Z,102006.53
2019-04-19T10:39:59.531Z,102022.92
2019-04-19T10:42:29.383Z,102017.31
2019-04-19T10:44:58.260Z,102011.25
2019-04-19T10:47:29.237Z,102015.56
2019-04-19T10:50:12.055Z,102012.07
2019-04-19T10:52:27.398Z,102011.62
2019-04-19T10:54:57.116Z,102009.04
2019-04-19T10:57:27.374Z,102009.89
2019-04-19T10:59:58.787Z,102006.91
2019-04-19T11:02:29.780Z,102003.84
2019-04-19T11:04:58.781Z,102015.05
2019-04-19T11:07:27.693Z,102005.53
2019-04-19T11:09:57.759Z,101999.48
2019-04-19T11:12:26.501Z,101992.98
2019-04-19T11:14:55.135Z,102004.22
2019-04-19T11:17:23.585Z,101999.42
2019-04-19T11:20:07.922Z,101997.26
2019-04-19T11:22:23.735Z,101993.00
2019-04-19T11:24:52.316Z,101999.91
2019-04-19T11:27:21.441Z,102000.72
2019-04-19T11:29:52.309Z,101998.97
2019-04-19T11:32:35.690Z,101988.95
2019-04-19T11:35:05.756Z,101983.73
2019-04-19T11:37:34.978Z,101983.77
2019-04-19T11:40:05.066Z,101988.90
2019-04-19T11:42:33.552Z,101990.13
2019-04-19T11:45:02.090Z,101994.36
2019-04-19T11:47:31.115Z,101995.56
2019-04-19T11:49:59.824Z,101984.70
2019-04-19T11:52:30.166Z,101983.50
2019-04-19T11:55:05.760Z,101985.34
2019-04-19T11:57:36.545Z,101978.00
2019-04-19T12:00:11.458Z,101980.14
2019-04-19T12:02:44.740Z,101989.42
2019-04-19T12:05:22.126Z,101979.49
2019-04-19T12:07:44.359Z,101974.34
2019-04-19T12:10:14.546Z,101971.69
2019-04-19T12:12:43.435Z,101974.78
2019-04-19T12:15:13.701Z,101976.80
2019-04-19T12:17:42.246Z,101982.48
2019-04-19T12:20:11.362Z,101971.23
2019-04-19T12:22:41.919Z,101978.69
2019-04-19T12:25:11.918Z,101974.41
2019-04-19T12:27:43.539Z,101970.52
2019-04-19T12:30:13.602Z,101968.44
2019-04-19T12:32:47.587Z,101964.79
2019-04-19T12:35:20.586Z,101956.73
2019-04-19T12:37:54.142Z,101962.81
2019-04-19T12:40:23.152Z,101969.34
2019-04-19T12:42:52.018Z,101963.00
2019-04-19T12:45:22.033Z,101960.01
2019-04-19T12:47:53.163Z,101959.92
2019-04-19T12:50:21.927Z,101951.72
2019-04-19T12:52:51.741Z,101956.22
2019-04-19T12:55:20.342Z,101950.50
2019-04-19T12:57:50.388Z,101955.55
2019-04-19T13:00:21.564Z,101946.42
2019-04-19T13:02:51.852Z,101952.27
2019-04-19T13:05:27.859Z,101943.28
2019-04-19T13:07:56.898Z,101948.92
2019-04-19T13:10:25.367Z,101943.30
2019-04-19T13:12:54.056Z,101938.69
2019-04-19T13:15:22.447Z,101933.02
2019-04-19T13:17:51.861Z,101944.56
2019-04-19T13:20:27.429Z,101941.48
2019-04-19T13:22:50.703Z,101932.44
2019-04-19T13:25:19.918Z,101928.68
2019-04-19T13:27:54.189Z,101926.27
2019-04-19T13:30:29.498Z,101931.00
2019-04-19T13:32:50.767Z,101932.20
2019-04-19T13:35:19.379Z,101924.88
2019-04-19T13:37:49.600Z,101926.20
2019-04-19T13:40:24.250Z,101922.44
2019-04-19T13:42:55.740Z,101922.70
2019-04-19T13:45:29.280Z,101920.69
2019-04-19T13:47:54.478Z,101923.36
2019-04-19T13:50:30.367Z,101919.94
2019-04-19T13:52:53.277Z,101916.53
2019-04-19T13:55:21.749Z,101919.50
2019-04-19T13:57:51.428Z,101913.66
2019-04-19T14:00:24.470Z,101916.33
2019-04-19T14:02:53.820Z,101910.69
2019-04-19T14:05:23.271Z,101919.66
2019-04-19T14:07:53.043Z,101912.32
2019-04-19T14:10:21.671Z,101910.62
2019-04-19T14:12:51.316Z,101911.02
2019-04-19T14:15:20.448Z,101910.45
2019-04-19T14:17:49.805Z,101906.53
2019-04-19T14:20:27.547Z,101913.38
2019-04-19T14:22:49.793Z,101903.43
2019-04-19T14:25:19.439Z,101907.25
2019-04-19T14:27:49.031Z,101909.09
2019-04-19T14:30:19.417Z,101905.42
2019-04-19T14:32:47.966Z,101910.34
2019-04-19T14:35:17.438Z,101901.74
2019-04-19T14:37:46.547Z,101903.64
2019-04-19T14:40:17.564Z,101900.52
2019-04-19T14:42:46.663Z,101896.77
2019-04-19T14:45:16.471Z,101897.48
2019-04-19T14:47:47.112Z,101897.22
2019-04-19T14:50:16.871Z,101888.85
2019-04-19T14:52:46.479Z,101893.93
2019-04-19T14:55:16.107Z,101892.39
2019-04-19T14:57:46.067Z,101895.56
2019-04-19T15:00:18.867Z,101893.79
2019-04-19T15:03:07.573Z,101894.86
2019-04-19T15:05:39.554Z,101891.09
2019-04-19T15:08:08.682Z,101894.47
2019-04-19T15:10:37.722Z,101890.80
2019-04-19T15:13:07.073Z,101889.89
2019-04-19T15:15:36.064Z,101888.13
2019-04-19T15:18:04.957Z,101881.97
2019-04-19T15:20:34.008Z,101893.42
2019-04-19T15:23:02.497Z,101888.52
2019-04-19T15:25:31.892Z,101884.34
2019-04-19T15:28:01.184Z,101886.91
2019-04-19T15:30:30.789Z,101885.45
2019-04-19T15:33:00.401Z,101883.59
2019-04-19T15:35:29.750Z,101879.65
2019-04-19T15:37:58.304Z,101878.89
2019-04-19T15:40:28.036Z,101876.28
2019-04-19T15:42:56.979Z,101875.36
2019-04-19T15:45:27.152Z,101874.75
2019-04-19T15:47:56.998Z,101880.20
2019-04-19T15:50:27.560Z,101878.72
2019-04-19T15:53:00.036Z,101883.25
2019-04-19T15:55:28.704Z,101880.49
2019-04-19T15:57:57.238Z,101880.19
2019-04-19T16:00:36.362Z,101875.59
2019-04-19T16:03:07.857Z,101871.42
2019-04-19T16:05:44.341Z,101878.27
2019-04-19T16:08:20.570Z,101880.73
2019-04-19T16:11:06.796Z,101880.43
2019-04-19T16:13:36.114Z,101885.95
2019-04-19T16:16:05.909Z,101879.65
2019-04-19T16:18:34.481Z,101878.69
2019-04-19T16:21:03.255Z,101875.61
2019-04-19T16:23:32.194Z,101874.25
2019-04-19T16:26:03.833Z,101882.50
2019-04-19T16:28:33.138Z,101881.24
2019-04-19T16:31:02.124Z,101886.10
2019-04-19T16:33:31.818Z,101878.55
2019-04-19T16:36:00.771Z,101883.69
2019-04-19T16:38:30.552Z,101884.09
2019-04-19T16:41:00.992Z,101887.63
2019-04-19T16:43:29.554Z,101890.44
2019-04-19T16:46:08.023Z,101888.22
2019-04-19T16:48:28.494Z,101887.31
2019-04-19T16:50:58.789Z,101886.95
2019-04-19T16:53:28.169Z,101887.81
2019-04-19T16:55:57.419Z,101880.21
2019-04-19T16:58:28.520Z,101880.81
2019-04-19T17:00:57.038Z,101881.41
2019-04-19T17:03:25.696Z,101887.22
2019-04-19T17:05:56.535Z,101884.24
2019-04-19T17:08:25.177Z,101886.63
2019-04-19T17:10:53.902Z,101886.33
2019-04-19T17:13:22.743Z,101883.52
2019-04-19T17:15:52.938Z,101880.59
2019-04-19T17:18:32.427Z,101883.91
2019-04-19T17:21:03.667Z,101888.36
2019-04-19T17:23:32.788Z,101886.03
2019-04-19T17:26:01.358Z,101888.59
2019-04-19T17:28:30.742Z,101884.03
2019-04-19T17:31:00.165Z,101890.17
2019-04-19T17:33:28.791Z,101895.06
2019-04-19T17:35:57.687Z,101893.56
2019-04-19T17:38:33.604Z,101899.66
2019-04-19T17:40:56.818Z,101900.14
2019-04-19T17:43:27.769Z,101902.33
2019-04-19T17:45:56.850Z,101901.27
2019-04-19T17:48:26.253Z,101906.74
2019-04-19T17:50:55.695Z,101912.13
2019-04-19T17:53:31.425Z,101915.34
2019-04-19T17:55:55.477Z,101915.58
2019-04-19T17:58:25.536Z,101920.25
2019-04-19T18:00:54.514Z,101924.61
2019-04-19T18:03:23.138Z,101930.17
2019-04-19T18:05:52.016Z,101934.23
2019-04-19T18:08:27.122Z,101930.03
2019-04-19T18:10:54.319Z,101946.27
2019-04-19T18:13:21.324Z,101938.27
2019-04-19T18:15:51.123Z,101949.75
2019-04-19T18:18:20.948Z,101951.33
2019-04-19T18:20:53.736Z,101951.41
2019-04-19T18:23:30.128Z,101954.19
2019-04-19T18:25:50.845Z,101926.44
2019-04-19T18:28:19.870Z,101961.50
2019-04-19T18:30:53.562Z,101965.47
2019-04-19T18:33:28.881Z,101960.30
2019-04-19T18:36:00.080Z,101968.27
2019-04-19T18:38:28.041Z,101967.05
2019-04-19T18:40:57.481Z,101973.25
2019-04-19T18:43:35.589Z,101972.00
2019-04-19T18:45:57.034Z,101974.71
2019-04-19T18:48:25.458Z,101977.83
2019-04-19T18:50:54.091Z,101976.21
2019-04-19T18:53:32.887Z,101983.65
2019-04-19T18:55:55.136Z,101987.70
2019-04-19T18:58:27.650Z,101985.63
2019-04-19T19:00:55.187Z,101993.09
2019-04-19T19:03:26.303Z,101995.75
2019-04-19T19:05:59.555Z,101994.09
2019-04-19T19:08:28.510Z,101998.53
2019-04-19T19:10:56.442Z,102001.67
2019-04-19T19:13:28.662Z,102001.31
2019-04-19T19:15:56.637Z,102005.27
2019-04-19T19:18:25.934Z,102003.23
2019-04-19T19:20:59.676Z,102008.45
2019-04-19T19:23:38.447Z,102008.50
2019-04-19T19:26:06.362Z,102009.77
2019-04-19T19:28:26.479Z,102014.13
2019-04-19T19:30:56.596Z,102015.52
2019-04-19T19:33:40.532Z,102019.04
2019-04-19T19:36:03.328Z,102012.98
2019-04-19T19:38:34.044Z,102014.36
2019-04-19T19:41:54.617Z,102013.98
2019-04-19T19:43:46.344Z,102016.61
2019-04-19T19:49:05.686Z,102012.75
2019-04-19T19:51:23.879Z,102016.64
2019-04-19T19:54:29.722Z,102018.37
2019-04-19T19:56:32.373Z,102018.41
2019-04-19T19:58:42.344Z,102023.64
2019-04-19T20:01:23.694Z,102018.48
2019-04-19T20:03:44.287Z,102023.71
2019-04-19T20:06:16.212Z,102021.55
2019-04-19T20:08:45.602Z,102024.59
2019-04-19T20:11:20.383Z,102023.27
2019-04-19T20:13:46.887Z,102026.74
2019-04-19T20:16:20.389Z,102030.24
2019-04-19T20:18:47.757Z,102037.59
2019-04-19T20:21:17.815Z,102033.27
2019-04-19T20:24:03.497Z,102039.33
2019-04-19T20:26:27.818Z,102041.51
2019-04-19T20:28:52.239Z,102048.89
2019-04-19T20:31:26.170Z,102053.19
2019-04-19T20:33:55.373Z,102051.91
2019-04-19T20:36:22.973Z,102054.08
2019-04-19T20:38:58.396Z,102057.97
2019-04-19T20:41:22.726Z,102056.26
2019-04-19T20:44:03.775Z,102059.70
2019-04-19T20:46:25.532Z,102065.33
2019-04-19T20:48:59.454Z,102061.00
2019-04-19T20:51:41.535Z,102070.05
2019-04-19T20:54:33.472Z,102070.06
2019-04-19T20:57:04.143Z,102068.77
2019-04-19T20:59:12.636Z,102074.82
2019-04-19T21:01:41.184Z,102073.53
2019-04-19T21:04:13.457Z,102076.52
2019-04-19T21:06:41.788Z,102069.54
2019-04-19T21:09:13.793Z,102072.52
2019-04-19T21:11:44.632Z,102078.98
2019-04-19T21:14:11.284Z,102076.32
2019-04-19T21:16:44.025Z,102088.27
2019-04-19T21:19:12.446Z,102093.33
2019-04-19T21:21:44.612Z,102088.47
2019-04-19T21:24:12.316Z,102094.05
2019-04-19T21:26:41.587Z,102096.11
2019-04-19T21:29:13.903Z,102098.20
2019-04-19T21:31:45.933Z,102096.35
2019-04-19T21:34:12.165Z,102098.00
2019-04-19T21:36:47.935Z,102102.67
2019-04-19T21:39:13.792Z,102104.79
2019-04-19T21:41:43.625Z,102103.09
2019-04-19T21:44:16.886Z,102098.05
2019-04-19T21:46:41.984Z,102102.95
2019-04-19T21:49:14.530Z,102107.08
2019-04-19T21:51:41.214Z,102101.31
2019-04-19T21:54:10.768Z,102105.42
2019-04-19T21:56:44.415Z,102102.77
2019-04-19T21:59:09.495Z,102107.19
2019-04-19T22:01:46.017Z,102096.38
2019-04-19T22:04:13.610Z,102105.40
2019-04-19T22:06:41.258Z,102103.89
2019-04-19T22:09:14.748Z,102106.44
2019-04-19T22:11:40.550Z,102106.84
2019-04-19T22:14:15.000Z,102110.27
2019-04-19T22:16:43.305Z,102105.34
2019-04-19T22:19:09.724Z,102108.30
2019-04-19T22:21:42.582Z,102110.78
2019-04-19T22:24:08.804Z,102115.91
2019-04-19T22:26:43.258Z,102109.19
2019-04-19T22:29:07.648Z,102113.05
2019-04-19T22:31:36.685Z,102116.59
2019-04-19T22:34:06.437Z,102111.79
2019-04-19T22:36:39.121Z,102107.45
2019-04-19T22:39:07.701Z,102107.88
2019-04-19T22:41:37.033Z,102113.54
2019-04-19T22:44:06.871Z,102107.78
2019-04-19T22:46:41.825Z,102107.88
2019-04-19T22:49:09.755Z,102104.94
2019-04-19T22:51:35.745Z,102101.94
2019-04-19T22:54:04.345Z,102103.71
2019-04-19T22:56:37.503Z,102100.38
2019-04-19T22:59:05.546Z,102101.78
2019-04-19T23:01:50.376Z,102106.29
2019-04-19T23:04:21.080Z,102103.42
2019-04-19T23:06:47.109Z,102101.36
2019-04-19T23:09:19.422Z,102096.09
2019-04-19T23:11:45.809Z,102098.69
2019-04-19T23:14:21.063Z,102096.05
2019-04-19T23:16:50.278Z,102100.56
2019-04-19T23:19:17.053Z,102096.25
2019-04-19T23:21:49.713Z,102095.28
2019-04-19T23:24:16.700Z,102093.99
2019-04-19T23:27:04.279Z,102095.98
2019-04-19T23:29:20.588Z,102097.68
2019-04-19T23:31:49.441Z,102089.66
2019-04-19T23:34:16.789Z,102091.25
2019-04-19T23:36:45.219Z,102079.33
2019-04-19T23:39:15.359Z,102093.77
2019-04-19T23:41:44.781Z,102094.20
2019-04-19T23:44:18.006Z,102093.58
2019-04-19T23:46:43.516Z,102092.80
2019-04-19T23:49:14.621Z,102091.55
2019-04-19T23:51:43.224Z,102094.18
2019-04-19T23:54:16.383Z,102091.14
2019-04-19T23:56:55.350Z,102088.10
2019-04-19T23:59:15.499Z,102080.38
